Bowen, Illinois
Current Conditions -  °F | °C
As of 1:54 PM on Monday 24 Nov 2014 (Local Time) from KUIN Reporting Station
Overcast Overcast  
Wind Chill: 21°   Ceiling: 2500
Heat Index: 33°   Visibility: 10mi
Dew Point: 24°   Wind: 22mph
Humidity: 70%   Direction: 260°W
Pressure: 29.69"   Gusts: 31mph
Location:  40.23°N, 91.06°W
Report Text: KUIN 241954Z AUTO 26019G27KT 10SM OVC025 01/M04 A2969 RMK AO2 PK WND 25027/1948 SLP059 T00061044
Loading
Personal Weather Stations






























Interactive Weather Map New forecast layout! Learn more

10-Day Weather Forecast

Advertisements
Track Severe Weather on mobile